createdAt,value
2019-03-21T00:00:35.273Z,61.21
2019-03-21T00:03:05.990Z,60.95
2019-03-21T00:05:38.111Z,60.61
2019-03-21T00:08:11.050Z,60.58
2019-03-21T00:11:46.321Z,60.25
2019-03-21T00:14:33.305Z,60.29
2019-03-21T00:17:04.899Z,60.54
2019-03-21T00:19:35.788Z,60.86
2019-03-21T00:22:07.162Z,60.79
2019-03-21T00:24:37.827Z,61.31
2019-03-21T00:27:08.501Z,61.29
2019-03-21T00:29:39.175Z,60.93
2019-03-21T00:32:10.187Z,61.17
2019-03-21T00:34:40.844Z,60.52
2019-03-21T00:37:11.504Z,60.72
2019-03-21T00:39:42.470Z,61.00
2019-03-21T00:42:13.431Z,61.08
2019-03-21T00:44:44.068Z,61.21
2019-03-21T00:47:14.813Z,61.48
2019-03-21T00:49:45.821Z,61.85
2019-03-21T00:52:18.003Z,62.17
2019-03-21T00:54:48.731Z,63.08
2019-03-21T00:57:19.420Z,63.59
2019-03-21T00:59:50.091Z,63.96
2019-03-21T01:02:20.760Z,63.79
2019-03-21T01:04:51.726Z,64.03
2019-03-21T01:07:22.466Z,64.05
2019-03-21T01:09:53.554Z,64.13
2019-03-21T01:12:24.316Z,64.45
2019-03-21T01:14:55.337Z,64.54
2019-03-21T01:17:25.982Z,65.25
2019-03-21T01:19:56.977Z,65.44
2019-03-21T01:22:27.894Z,65.31
2019-03-21T01:25:12.150Z,65.31
2019-03-21T01:27:43.091Z,65.51
2019-03-21T01:30:15.488Z,65.72
2019-03-21T01:33:05.442Z,65.67
2019-03-21T01:35:36.468Z,65.54
2019-03-21T01:38:07.141Z,65.46
2019-03-21T01:40:39.435Z,65.89
2019-03-21T01:43:10.192Z,65.57
2019-03-21T01:45:40.871Z,65.24
2019-03-21T01:48:11.517Z,65.23
2019-03-21T01:50:42.248Z,64.96
2019-03-21T01:53:12.920Z,65.24
2019-03-21T01:55:43.929Z,65.31
2019-03-21T01:58:14.604Z,65.69
2019-03-21T02:00:45.370Z,65.73
2019-03-21T02:03:16.013Z,65.61
2019-03-21T02:05:46.686Z,65.31
2019-03-21T02:08:17.369Z,65.14
2019-03-21T02:10:48.051Z,65.36
2019-03-21T02:13:18.969Z,64.89
2019-03-21T02:15:50.877Z,64.34
2019-03-21T02:18:21.538Z,64.41
2019-03-21T02:20:52.197Z,63.98
2019-03-21T02:23:23.283Z,63.86
2019-03-21T02:25:54.809Z,63.88
2019-03-21T02:28:25.443Z,64.02
2019-03-21T02:30:56.134Z,64.19
2019-03-21T02:33:30.756Z,63.91
2019-03-21T02:36:01.630Z,63.99
2019-03-21T02:38:32.307Z,64.46
2019-03-21T02:41:05.468Z,64.09
2019-03-21T02:43:36.279Z,64.66
2019-03-21T02:46:07.038Z,65.09
2019-03-21T02:48:38.016Z,65.54
2019-03-21T02:51:09.016Z,65.41
2019-03-21T02:53:40.199Z,65.22
2019-03-21T02:56:13.269Z,64.83
2019-03-21T02:58:43.919Z,64.69
2019-03-21T03:01:14.888Z,64.58
2019-03-21T03:03:45.850Z,64.54
2019-03-21T03:06:16.566Z,65.02
2019-03-21T03:08:47.287Z,65.20
2019-03-21T03:11:18.262Z,65.05
2019-03-21T03:13:50.135Z,65.02
2019-03-21T03:16:21.015Z,64.95
2019-03-21T03:18:51.936Z,64.65
2019-03-21T03:21:22.665Z,64.50
2019-03-21T03:23:53.344Z,64.69
2019-03-21T03:26:23.978Z,64.77
2019-03-21T03:28:54.669Z,64.56
2019-03-21T03:31:25.671Z,64.65
2019-03-21T03:33:56.652Z,64.63
2019-03-21T03:36:27.596Z,64.74
2019-03-21T03:38:58.549Z,64.60
2019-03-21T03:41:29.245Z,64.48
2019-03-21T03:44:00.185Z,64.39
2019-03-21T03:46:30.878Z,64.37
2019-03-21T03:49:01.612Z,64.67
2019-03-21T03:51:32.347Z,65.13
2019-03-21T03:54:03.269Z,65.75
2019-03-21T03:56:34.525Z,65.74
2019-03-21T03:59:05.342Z,65.63
2019-03-21T04:01:36.235Z,65.47
2019-03-21T04:04:06.985Z,65.60
2019-03-21T04:06:37.658Z,66.16
2019-03-21T04:09:09.722Z,66.21
2019-03-21T04:11:40.522Z,66.21
2019-03-21T04:14:12.026Z,66.73
2019-03-21T04:16:42.935Z,66.79
2019-03-21T04:19:13.640Z,66.73
2019-03-21T04:21:44.687Z,66.75
2019-03-21T04:24:15.332Z,67.06
2019-03-21T04:26:45.986Z,68.77
2019-03-21T04:29:16.646Z,69.43
2019-03-21T04:31:47.511Z,70.14
2019-03-21T04:34:18.202Z,70.44
2019-03-21T04:36:48.865Z,70.20
2019-03-21T04:39:19.831Z,69.31
2019-03-21T04:41:50.790Z,69.43
2019-03-21T04:44:21.528Z,69.79
2019-03-21T04:46:52.476Z,69.72
2019-03-21T04:49:23.113Z,69.45
2019-03-21T04:51:54.119Z,69.28
2019-03-21T04:54:25.082Z,69.14
2019-03-21T04:56:56.012Z,68.78
2019-03-21T04:59:26.970Z,68.60
2019-03-21T05:01:57.983Z,68.79
2019-03-21T05:04:29.167Z,68.82
2019-03-21T05:07:00.425Z,68.80
2019-03-21T05:09:31.119Z,68.74
2019-03-21T05:12:01.792Z,68.88
2019-03-21T05:14:32.443Z,68.88
2019-03-21T05:17:03.091Z,69.07
2019-03-21T05:19:33.820Z,68.94
2019-03-21T05:22:04.768Z,69.21
2019-03-21T05:24:35.769Z,69.41
2019-03-21T05:27:06.520Z,69.44
2019-03-21T05:29:37.211Z,69.91
2019-03-21T05:32:08.160Z,69.89
2019-03-21T05:34:38.813Z,70.24
2019-03-21T05:37:10.541Z,70.58
2019-03-21T05:39:41.275Z,71.00
2019-03-21T05:42:18.402Z,71.11
2019-03-21T05:44:49.099Z,71.41
2019-03-21T05:47:20.006Z,71.17
2019-03-21T05:49:50.692Z,71.42
2019-03-21T05:52:21.689Z,71.27
2019-03-21T05:54:52.914Z,70.98
2019-03-21T05:57:23.592Z,70.99
2019-03-21T05:59:54.233Z,70.93
2019-03-21T06:02:24.955Z,70.83
2019-03-21T06:04:56.140Z,70.15
2019-03-21T06:07:37.907Z,70.44
2019-03-21T06:10:11.869Z,70.56
2019-03-21T06:12:46.285Z,70.34
2019-03-21T06:15:21.621Z,70.35
2019-03-21T06:18:28.775Z,70.62
2019-03-21T06:21:16.717Z,70.70
2019-03-21T06:24:34.680Z,71.17
2019-03-21T06:27:33.724Z,70.78
2019-03-21T06:30:05.079Z,70.64
2019-03-21T06:32:36.103Z,70.73
2019-03-21T06:35:18.967Z,70.72
2019-03-21T06:37:49.608Z,71.04
2019-03-21T06:40:20.366Z,70.04
2019-03-21T06:42:51.308Z,70.13
2019-03-21T06:45:22.021Z,69.85
2019-03-21T06:47:53.323Z,69.96
2019-03-21T06:50:24.376Z,69.52
2019-03-21T06:52:55.378Z,69.22
2019-03-21T06:55:26.059Z,68.72
2019-03-21T06:57:57.099Z,68.56
2019-03-21T07:00:27.770Z,68.47
2019-03-21T07:02:58.441Z,68.98
2019-03-21T07:05:29.116Z,68.77
2019-03-21T07:07:59.766Z,68.90
2019-03-21T07:10:30.751Z,68.88
2019-03-21T07:13:01.781Z,68.75
2019-03-21T07:15:32.435Z,68.58
2019-03-21T07:18:03.989Z,68.51
2019-03-21T07:20:34.765Z,69.07
2019-03-21T07:23:05.677Z,69.12
2019-03-21T07:25:36.472Z,68.25
2019-03-21T07:28:07.543Z,68.65
2019-03-21T07:30:38.227Z,69.24
2019-03-21T07:33:09.509Z,68.69
2019-03-21T07:35:40.566Z,68.07
2019-03-21T07:38:11.708Z,67.87
2019-03-21T07:40:42.433Z,67.79
2019-03-21T07:43:13.088Z,68.22
2019-03-21T07:45:43.769Z,68.06
2019-03-21T07:48:14.682Z,67.54
2019-03-21T07:50:45.685Z,67.48
2019-03-21T07:53:16.733Z,68.07
2019-03-21T07:55:47.768Z,67.92
2019-03-21T07:58:18.410Z,67.38
2019-03-21T08:00:49.730Z,67.95
2019-03-21T08:03:20.742Z,67.19
2019-03-21T08:05:51.422Z,67.30
2019-03-21T08:08:22.419Z,67.82
2019-03-21T08:10:53.712Z,67.50
2019-03-21T08:13:24.359Z,67.01
2019-03-21T08:15:55.027Z,67.01
2019-03-21T08:18:25.715Z,66.78
2019-03-21T08:20:59.801Z,67.05
2019-03-21T08:23:28.771Z,66.83
2019-03-21T08:25:59.732Z,66.40
2019-03-21T08:28:49.640Z,66.65
2019-03-21T08:31:22.069Z,66.42
2019-03-21T08:33:52.749Z,64.91
2019-03-21T08:36:23.444Z,64.88
2019-03-21T08:38:54.102Z,65.54
2019-03-21T08:41:24.778Z,64.65
2019-03-21T08:43:55.426Z,64.67
2019-03-21T08:46:26.116Z,64.16
2019-03-21T08:48:57.106Z,63.68
2019-03-21T08:51:28.114Z,62.19
2019-03-21T08:53:58.793Z,62.31
2019-03-21T08:56:29.452Z,62.07
2019-03-21T08:59:00.480Z,62.00
2019-03-21T09:01:31.395Z,61.74
2019-03-21T09:04:02.123Z,60.93
2019-03-21T09:06:32.801Z,61.20
2019-03-21T09:09:04.470Z,61.55
2019-03-21T09:11:35.161Z,60.76
2019-03-21T09:14:05.871Z,61.32
2019-03-21T09:16:36.547Z,60.86
2019-03-21T09:19:07.300Z,59.73
2019-03-21T09:21:38.263Z,59.45
2019-03-21T09:24:08.933Z,59.27
2019-03-21T09:26:39.662Z,59.45
2019-03-21T09:29:10.316Z,59.02
2019-03-21T09:31:40.989Z,59.35
2019-03-21T09:34:11.697Z,58.78
2019-03-21T09:36:42.373Z,57.70
2019-03-21T09:39:13.083Z,57.48
2019-03-21T09:41:43.790Z,57.52
2019-03-21T09:44:23.444Z,58.17
2019-03-21T09:46:54.476Z,56.94
2019-03-21T09:49:25.261Z,56.73
2019-03-21T09:51:55.947Z,57.65
2019-03-21T09:54:26.771Z,57.99
2019-03-21T09:56:57.454Z,58.05
2019-03-21T09:59:28.082Z,58.19
2019-03-21T10:01:58.900Z,57.70
2019-03-21T10:04:29.915Z,57.21
2019-03-21T10:07:00.664Z,56.89
2019-03-21T10:09:31.703Z,54.99
2019-03-21T10:12:02.995Z,56.09
2019-03-21T10:14:33.661Z,55.87
2019-03-21T10:17:04.308Z,55.27
2019-03-21T10:19:34.945Z,55.52
2019-03-21T10:22:05.588Z,54.44
2019-03-21T10:24:36.318Z,54.50
2019-03-21T10:27:07.311Z,55.56
2019-03-21T10:29:38.084Z,53.03
2019-03-21T10:32:14.163Z,49.01
2019-03-21T10:34:41.439Z,41.72
2019-03-21T10:37:12.107Z,40.58
2019-03-21T10:39:42.788Z,43.98
2019-03-21T10:42:13.755Z,42.01
2019-03-21T10:44:44.402Z,41.30
2019-03-21T10:47:15.686Z,39.00
2019-03-21T10:49:46.727Z,39.96
2019-03-21T10:52:17.430Z,41.50
2019-03-21T10:54:48.407Z,41.25
2019-03-21T10:57:19.443Z,42.83
2019-03-21T10:59:50.063Z,41.06
2019-03-21T11:02:21.191Z,40.18
2019-03-21T11:04:51.829Z,40.28
2019-03-21T11:07:19.831Z,41.97
2019-03-21T11:09:50.860Z,44.45
2019-03-21T11:12:21.837Z,43.54
2019-03-21T11:14:52.512Z,49.73
2019-03-21T11:17:23.257Z,49.98
2019-03-21T11:19:53.895Z,48.50
2019-03-21T11:22:24.597Z,45.59
2019-03-21T11:24:55.531Z,46.72
2019-03-21T11:27:26.181Z,48.47
2019-03-21T11:29:56.830Z,49.53
2019-03-21T11:32:27.726Z,48.91
2019-03-21T11:34:58.424Z,49.09
2019-03-21T11:37:29.089Z,50.15
2019-03-21T11:40:00.166Z,49.48
2019-03-21T11:42:31.183Z,48.47
2019-03-21T11:45:01.841Z,49.47
2019-03-21T11:47:41.362Z,48.30
2019-03-21T11:50:05.509Z,46.67
2019-03-21T11:52:36.443Z,48.06
2019-03-21T11:55:08.307Z,46.87
2019-03-21T11:57:38.959Z,45.26
2019-03-21T12:00:09.905Z,46.98
2019-03-21T12:02:40.601Z,49.21
2019-03-21T12:05:11.982Z,48.84
2019-03-21T12:07:42.654Z,48.87
2019-03-21T12:10:13.885Z,47.93
2019-03-21T12:12:44.569Z,49.75
2019-03-21T12:15:15.451Z,49.77
2019-03-21T12:17:46.383Z,49.06
2019-03-21T12:20:46.566Z,47.89
2019-03-21T12:23:17.240Z,47.61
2019-03-21T12:25:47.958Z,47.67
2019-03-21T12:28:18.646Z,49.14
2019-03-21T12:30:49.678Z,47.72
2019-03-21T12:33:20.326Z,46.68
2019-03-21T12:35:50.965Z,46.33
2019-03-21T12:38:21.718Z,46.20
2019-03-21T12:40:52.627Z,48.32
2019-03-21T12:43:23.307Z,47.11
2019-03-21T12:45:53.939Z,45.86
2019-03-21T12:48:24.605Z,46.33
2019-03-21T12:50:55.299Z,45.67
2019-03-21T12:53:25.993Z,45.77
2019-03-21T12:55:57.041Z,44.92
2019-03-21T12:58:27.759Z,44.71
2019-03-21T13:00:58.461Z,44.83
2019-03-21T13:03:29.347Z,44.31
2019-03-21T13:06:00.042Z,44.27
2019-03-21T13:08:34.102Z,43.28
2019-03-21T13:11:03.669Z,42.97
2019-03-21T13:13:34.606Z,43.06
2019-03-21T13:16:05.315Z,43.32
2019-03-21T13:18:36.056Z,42.20
2019-03-21T13:21:06.726Z,42.14
2019-03-21T13:23:37.457Z,41.91
2019-03-21T13:26:08.106Z,41.63
2019-03-21T13:28:39.385Z,42.15
2019-03-21T13:31:10.062Z,43.57
2019-03-21T13:33:40.706Z,41.47
2019-03-21T13:36:13.786Z,41.44
2019-03-21T13:38:44.459Z,42.06
2019-03-21T13:41:15.161Z,42.90
2019-03-21T13:43:45.848Z,44.76
2019-03-21T13:46:16.536Z,43.98
2019-03-21T13:48:47.627Z,42.36
2019-03-21T13:51:18.263Z,41.50
2019-03-21T13:53:48.932Z,41.50
2019-03-21T13:56:19.955Z,41.25
2019-03-21T13:58:50.947Z,41.85
2019-03-21T14:01:21.908Z,42.03
2019-03-21T14:03:52.822Z,41.83
2019-03-21T14:06:23.459Z,41.44
2019-03-21T14:08:54.143Z,40.90
2019-03-21T14:11:24.784Z,41.24
2019-03-21T14:13:56.105Z,41.07
2019-03-21T14:16:27.104Z,41.73
2019-03-21T14:18:57.753Z,41.90
2019-03-21T14:21:28.416Z,42.66
2019-03-21T14:23:59.104Z,43.46
2019-03-21T14:26:30.034Z,43.17
2019-03-21T14:29:11.920Z,45.48
2019-03-21T14:31:33.075Z,44.27
2019-03-21T14:34:03.780Z,44.79
2019-03-21T14:36:34.462Z,43.43
2019-03-21T14:39:07.487Z,43.05
2019-03-21T14:41:38.504Z,42.56
2019-03-21T14:44:09.146Z,42.81
2019-03-21T14:46:39.867Z,42.82
2019-03-21T14:49:10.533Z,42.94
2019-03-21T14:51:41.241Z,43.09
2019-03-21T14:54:12.219Z,43.16
2019-03-21T14:56:43.028Z,43.17
2019-03-21T14:59:13.709Z,45.18
2019-03-21T15:01:44.395Z,45.44
2019-03-21T15:04:15.106Z,44.68
2019-03-21T15:06:46.023Z,45.02
2019-03-21T15:09:16.719Z,45.56
2019-03-21T15:11:47.475Z,46.27
2019-03-21T15:14:18.226Z,46.01
2019-03-21T15:16:48.923Z,47.07
2019-03-21T15:19:19.597Z,46.70
2019-03-21T15:21:50.259Z,47.11
2019-03-21T15:24:20.977Z,47.26
2019-03-21T15:26:51.649Z,47.36
2019-03-21T15:29:22.294Z,47.91
2019-03-21T15:31:53.507Z,48.40
2019-03-21T15:34:24.183Z,48.27
2019-03-21T15:36:54.919Z,48.04
2019-03-21T15:39:26.106Z,48.16
2019-03-21T15:41:56.776Z,48.00
2019-03-21T15:44:28.034Z,48.52
2019-03-21T15:46:58.796Z,48.53
2019-03-21T15:49:29.991Z,48.84
2019-03-21T15:52:00.656Z,49.22
2019-03-21T15:54:31.699Z,49.12
2019-03-21T15:57:02.653Z,48.85
2019-03-21T15:59:33.451Z,48.97
2019-03-21T16:02:04.570Z,48.63
2019-03-21T16:04:35.609Z,49.22
2019-03-21T16:07:06.283Z,49.60
2019-03-21T16:09:37.185Z,49.69
2019-03-21T16:12:08.196Z,50.08
2019-03-21T16:14:39.320Z,49.97
2019-03-21T16:17:10.023Z,50.35
2019-03-21T16:19:40.676Z,50.39
2019-03-21T16:22:11.444Z,50.90
2019-03-21T16:24:42.153Z,51.04
2019-03-21T16:27:12.795Z,50.79
2019-03-21T16:29:43.653Z,51.38
2019-03-21T16:32:14.328Z,51.73
2019-03-21T16:34:45.044Z,52.30
2019-03-21T16:37:16.042Z,52.45
2019-03-21T16:39:47.167Z,52.81
2019-03-21T16:42:18.231Z,52.85
2019-03-21T16:44:48.931Z,53.16
2019-03-21T16:47:19.645Z,53.49
2019-03-21T16:49:50.320Z,53.78
2019-03-21T16:52:21.047Z,53.63
2019-03-21T16:54:51.735Z,54.49
2019-03-21T16:57:22.471Z,54.72
2019-03-21T16:59:53.168Z,55.27
2019-03-21T17:02:23.862Z,55.81
2019-03-21T17:04:54.581Z,56.48
2019-03-21T17:07:25.272Z,56.77
2019-03-21T17:09:57.989Z,57.14
2019-03-21T17:12:28.951Z,57.78
2019-03-21T17:14:59.922Z,58.11
2019-03-21T17:17:30.867Z,58.67
2019-03-21T17:20:03.713Z,58.95
2019-03-21T17:22:34.418Z,59.43
2019-03-21T17:25:05.834Z,59.89
2019-03-21T17:27:36.526Z,60.35
2019-03-21T17:30:08.671Z,60.56
2019-03-21T17:32:39.338Z,60.77
2019-03-21T17:35:10.909Z,61.16
2019-03-21T17:37:41.579Z,61.59
2019-03-21T17:40:12.703Z,61.79
2019-03-21T17:42:43.428Z,62.15
2019-03-21T17:45:15.788Z,62.52
2019-03-21T17:47:46.499Z,63.03
2019-03-21T17:50:17.538Z,63.72
2019-03-21T17:52:48.292Z,63.99
2019-03-21T17:55:19.269Z,64.42
2019-03-21T17:57:50.118Z,65.06
2019-03-21T18:00:22.646Z,65.56
2019-03-21T18:02:54.238Z,66.16
2019-03-21T18:05:25.058Z,66.44
2019-03-21T18:07:55.797Z,66.96
2019-03-21T18:10:29.666Z,67.38
2019-03-21T18:13:00.867Z,67.88
2019-03-21T18:15:31.838Z,67.96
2019-03-21T18:18:03.026Z,68.43
2019-03-21T18:20:33.869Z,68.95
2019-03-21T18:23:04.652Z,69.06
2019-03-21T18:25:35.367Z,69.62
2019-03-21T18:28:08.796Z,69.70
2019-03-21T18:30:39.100Z,70.34
2019-03-21T18:33:10.180Z,70.72
2019-03-21T18:35:40.914Z,70.86
2019-03-21T18:38:12.303Z,71.74
2019-03-21T18:40:43.030Z,71.74
2019-03-21T18:43:13.704Z,71.58
2019-03-21T18:45:44.641Z,71.57
2019-03-21T18:48:15.315Z,72.61
2019-03-21T18:50:46.093Z,73.25
2019-03-21T18:53:16.830Z,73.28
2019-03-21T18:55:47.624Z,73.48
2019-03-21T18:58:18.275Z,73.97
2019-03-21T19:00:48.994Z,74.32
2019-03-21T19:03:19.998Z,75.05
2019-03-21T19:05:51.468Z,74.96
2019-03-21T19:08:22.166Z,74.70
2019-03-21T19:10:53.036Z,74.70
2019-03-21T19:13:23.737Z,75.03
2019-03-21T19:15:54.695Z,75.44
2019-03-21T19:18:25.679Z,75.78
2019-03-21T19:20:56.643Z,76.19
2019-03-21T19:23:27.313Z,76.49
2019-03-21T19:25:58.038Z,76.71
2019-03-21T19:28:28.718Z,76.42
2019-03-21T19:30:59.538Z,76.76
2019-03-21T19:33:30.251Z,76.81
2019-03-21T19:36:01.307Z,76.94
2019-03-21T19:38:32.099Z,77.06
2019-03-21T19:41:02.769Z,77.13
2019-03-21T19:43:33.510Z,77.76
2019-03-21T19:46:04.277Z,78.14
2019-03-21T19:48:35.254Z,78.21
2019-03-21T19:51:06.218Z,78.61
2019-03-21T19:53:37.264Z,79.76
2019-03-21T19:56:08.888Z,79.98
2019-03-21T19:58:39.724Z,80.45
2019-03-21T20:01:10.409Z,80.24
2019-03-21T20:03:41.649Z,80.54
2019-03-21T20:06:12.730Z,80.59
2019-03-21T20:08:43.455Z,80.54
2019-03-21T20:11:14.125Z,80.87
2019-03-21T20:13:44.801Z,81.48
2019-03-21T20:16:15.530Z,82.06
2019-03-21T20:18:46.830Z,82.52
2019-03-21T20:21:17.513Z,83.10
2019-03-21T20:23:48.219Z,84.02
2019-03-21T20:26:18.924Z,85.01
2019-03-21T20:28:50.005Z,85.82
2019-03-21T20:31:20.695Z,85.90
2019-03-21T20:33:51.394Z,85.52
2019-03-21T20:36:22.149Z,85.35
2019-03-21T20:38:53.124Z,85.43
2019-03-21T20:41:24.149Z,85.25
2019-03-21T20:43:55.166Z,85.01
2019-03-21T20:46:25.821Z,84.85
2019-03-21T20:48:53.879Z,84.49
2019-03-21T20:51:24.581Z,84.98
2019-03-21T20:53:55.353Z,85.33
2019-03-21T20:56:26.344Z,86.08
2019-03-21T20:58:57.095Z,85.95
2019-03-21T21:01:27.754Z,85.59
2019-03-21T21:03:58.523Z,85.79
2019-03-21T21:06:30.024Z,85.50
2019-03-21T21:09:00.696Z,85.46
2019-03-21T21:11:31.461Z,85.70
2019-03-21T21:14:02.186Z,85.72
2019-03-21T21:16:32.914Z,85.67
2019-03-21T21:19:03.567Z,85.44
2019-03-21T21:21:34.246Z,85.64
2019-03-21T21:24:05.152Z,85.56
2019-03-21T21:26:35.883Z,85.82
2019-03-21T21:29:07.416Z,85.94
2019-03-21T21:31:38.942Z,85.98
2019-03-21T21:34:10.017Z,85.73
2019-03-21T21:36:40.747Z,85.42
2019-03-21T21:39:11.535Z,85.65
2019-03-21T21:41:42.599Z,85.80
2019-03-21T21:44:13.659Z,85.82
2019-03-21T21:46:44.387Z,85.99
2019-03-21T21:49:15.384Z,85.82
2019-03-21T21:51:46.409Z,85.86
2019-03-21T21:54:17.818Z,85.77
2019-03-21T21:56:49.147Z,85.59
2019-03-21T21:59:20.214Z,85.38
2019-03-21T22:01:52.664Z,85.35
2019-03-21T22:04:23.561Z,85.21
2019-03-21T22:06:54.740Z,85.08
2019-03-21T22:09:26.058Z,85.03
2019-03-21T22:11:56.791Z,85.02
2019-03-21T22:14:27.767Z,85.19
2019-03-21T22:16:58.754Z,85.84
2019-03-21T22:19:29.516Z,86.44
2019-03-21T22:22:00.355Z,86.23
2019-03-21T22:24:31.547Z,86.45
2019-03-21T22:27:07.065Z,86.37
2019-03-21T22:29:37.958Z,86.36
2019-03-21T22:32:09.104Z,86.38
2019-03-21T22:34:40.405Z,86.20
2019-03-21T22:37:11.336Z,86.17
2019-03-21T22:39:42.275Z,86.26
2019-03-21T22:42:13.371Z,86.20
2019-03-21T22:44:44.204Z,86.38
2019-03-21T22:47:15.012Z,86.27
2019-03-21T22:49:46.106Z,86.15
2019-03-21T22:52:17.027Z,86.08
2019-03-21T22:54:47.964Z,85.93
2019-03-21T22:57:18.671Z,85.61
2019-03-21T22:59:49.762Z,85.59
2019-03-21T23:02:20.927Z,85.57
2019-03-21T23:04:51.859Z,85.48
2019-03-21T23:07:22.655Z,85.83
2019-03-21T23:09:53.334Z,86.50
2019-03-21T23:12:24.336Z,86.91
2019-03-21T23:14:55.069Z,86.90
2019-03-21T23:17:25.743Z,86.92
2019-03-21T23:19:56.440Z,86.73
2019-03-21T23:22:27.216Z,86.62
2019-03-21T23:24:57.894Z,87.23
2019-03-21T23:27:28.558Z,87.86
2019-03-21T23:29:59.269Z,87.96
2019-03-21T23:32:29.940Z,87.91
2019-03-21T23:35:00.978Z,87.96
2019-03-21T23:37:31.687Z,88.03
2019-03-21T23:40:02.618Z,87.93
2019-03-21T23:42:33.281Z,87.80
2019-03-21T23:45:04.198Z,87.94
2019-03-21T23:47:34.921Z,88.03
2019-03-21T23:50:06.702Z,87.96
2019-03-21T23:52:37.354Z,87.77
2019-03-21T23:55:08.489Z,87.63
2019-03-21T23:57:39.232Z,87.53
